createdAt,value
2017-06-14T00:00:35.388Z,92.00
2017-06-14T00:03:02.960Z,92.00
2017-06-14T00:05:31.279Z,92.20
2017-06-14T00:07:58.795Z,92.10
2017-06-14T00:10:26.322Z,92.30
2017-06-14T00:12:54.228Z,92.40
2017-06-14T00:15:21.756Z,92.60
2017-06-14T00:17:49.294Z,92.60
2017-06-14T00:20:16.850Z,92.70
2017-06-14T00:22:44.409Z,92.70
2017-06-14T00:25:11.920Z,92.80
2017-06-14T00:27:39.489Z,93.10
2017-06-14T00:30:07.006Z,92.70
2017-06-14T00:32:34.540Z,92.70
2017-06-14T00:35:02.349Z,92.70
2017-06-14T00:37:30.647Z,92.60
2017-06-14T00:39:58.171Z,92.60
2017-06-14T00:42:25.728Z,92.60
2017-06-14T00:44:53.265Z,92.50
2017-06-14T00:47:20.790Z,92.40
2017-06-14T00:49:48.586Z,92.80
2017-06-14T00:52:16.143Z,92.30
2017-06-14T00:54:43.701Z,92.60
2017-06-14T00:57:11.261Z,93.00
2017-06-14T00:59:38.781Z,93.30
2017-06-14T01:02:06.306Z,93.60
2017-06-14T01:04:33.871Z,94.00
2017-06-14T01:07:01.413Z,94.10
2017-06-14T01:09:28.962Z,94.20
2017-06-14T01:11:56.508Z,94.30
2017-06-14T01:14:24.032Z,94.20
2017-06-14T01:16:51.563Z,94.20
2017-06-14T01:19:19.142Z,94.10
2017-06-14T01:21:46.695Z,94.10
2017-06-14T01:24:14.983Z,94.20
2017-06-14T01:26:42.543Z,94.20
2017-06-14T01:29:10.068Z,94.20
2017-06-14T01:31:37.588Z,94.10
2017-06-14T01:34:05.145Z,93.90
2017-06-14T01:36:32.682Z,94.30
2017-06-14T01:39:00.216Z,94.30
2017-06-14T01:41:27.774Z,94.30
2017-06-14T01:43:55.297Z,94.30
2017-06-14T01:46:24.211Z,94.30
2017-06-14T01:48:51.765Z,94.40
2017-06-14T01:51:19.280Z,94.60
2017-06-14T01:53:46.823Z,94.50
2017-06-14T01:56:14.370Z,94.70
2017-06-14T01:58:42.661Z,95.10
2017-06-14T02:01:10.188Z,95.10
2017-06-14T02:03:38.196Z,95.00
2017-06-14T02:06:05.729Z,94.80
2017-06-14T02:08:33.252Z,94.70
2017-06-14T02:11:00.800Z,94.70
2017-06-14T02:13:28.330Z,94.40
2017-06-14T02:15:55.886Z,94.10
2017-06-14T02:18:23.449Z,94.20
2017-06-14T02:20:50.998Z,94.40
2017-06-14T02:23:18.539Z,94.20
2017-06-14T02:25:46.112Z,94.10
2017-06-14T02:28:14.413Z,94.00
2017-06-14T02:30:41.936Z,93.90
2017-06-14T02:33:09.492Z,93.80
2017-06-14T02:35:37.018Z,94.00
2017-06-14T02:38:04.541Z,94.00
2017-06-14T02:40:32.496Z,94.10
2017-06-14T02:43:00.024Z,94.10
2017-06-14T02:45:27.537Z,94.90
2017-06-14T02:47:55.078Z,95.10
2017-06-14T02:50:22.590Z,95.20
2017-06-14T02:52:50.124Z,95.50
2017-06-14T02:55:17.699Z,95.80
2017-06-14T02:57:45.235Z,96.00
2017-06-14T03:00:12.762Z,96.20
2017-06-14T03:02:40.320Z,96.20
2017-06-14T03:05:07.836Z,96.40
2017-06-14T03:07:35.396Z,96.40
2017-06-14T03:10:02.941Z,96.40
2017-06-14T03:12:30.454Z,96.40
2017-06-14T03:14:58.748Z,96.30
2017-06-14T03:17:26.291Z,96.30
2017-06-14T03:19:53.812Z,96.40
2017-06-14T03:22:21.318Z,96.20
2017-06-14T03:24:49.178Z,95.90
2017-06-14T03:27:16.704Z,95.80
2017-06-14T03:29:44.228Z,96.30
2017-06-14T03:32:12.144Z,96.60
2017-06-14T03:34:39.667Z,96.60
2017-06-14T03:37:07.186Z,96.60
2017-06-14T03:39:35.150Z,96.40
2017-06-14T03:42:02.683Z,96.30
2017-06-14T03:44:30.211Z,96.20
2017-06-14T03:46:58.013Z,96.10
2017-06-14T03:49:25.560Z,95.60
2017-06-14T03:51:53.083Z,95.50
2017-06-14T03:54:20.648Z,95.20
2017-06-14T03:56:48.192Z,95.10
2017-06-14T03:59:15.726Z,95.10
2017-06-14T04:01:43.271Z,95.30
2017-06-14T04:04:11.564Z,96.20
2017-06-14T04:06:39.079Z,96.20
2017-06-14T04:09:06.642Z,96.90
2017-06-14T04:11:34.166Z,97.10
2017-06-14T04:14:01.684Z,97.20
2017-06-14T04:16:29.645Z,97.20
2017-06-14T04:18:57.950Z,97.00
2017-06-14T04:21:25.530Z,97.00
2017-06-14T04:23:53.451Z,96.80
2017-06-14T04:26:21.774Z,96.60
2017-06-14T04:28:49.313Z,96.50
2017-06-14T04:31:17.251Z,95.60
2017-06-14T04:33:45.550Z,95.60
2017-06-14T04:36:13.086Z,95.50
2017-06-14T04:38:40.960Z,95.20
2017-06-14T04:41:08.492Z,94.90
2017-06-14T04:43:36.019Z,94.70
2017-06-14T04:46:03.575Z,94.60
2017-06-14T04:48:31.104Z,94.40
2017-06-14T04:50:59.394Z,93.90
2017-06-14T04:53:26.948Z,93.90
2017-06-14T04:55:54.479Z,93.80
2017-06-14T04:58:22.000Z,93.50
2017-06-14T05:00:49.548Z,93.40
2017-06-14T05:03:17.201Z,93.10
2017-06-14T05:05:44.735Z,92.90
2017-06-14T05:08:12.289Z,92.70
2017-06-14T05:10:39.815Z,92.50
2017-06-14T05:13:07.398Z,91.60
2017-06-14T05:15:34.975Z,91.10
2017-06-14T05:18:02.508Z,90.50
2017-06-14T05:20:30.038Z,90.40
2017-06-14T05:22:57.598Z,89.20
2017-06-14T05:25:25.139Z,87.70
2017-06-14T05:27:52.691Z,86.00
2017-06-14T05:30:20.243Z,85.40
2017-06-14T05:32:47.794Z,84.30
2017-06-14T05:35:15.338Z,84.00
2017-06-14T05:37:42.891Z,82.50
2017-06-14T05:40:11.190Z,81.70
2017-06-14T05:42:38.721Z,81.50
2017-06-14T05:45:06.278Z,80.20
2017-06-14T05:47:33.822Z,78.50
2017-06-14T05:50:01.354Z,77.40
2017-06-14T05:52:28.900Z,75.90
2017-06-14T05:54:56.421Z,75.80
2017-06-14T05:57:23.949Z,74.40
2017-06-14T05:59:51.512Z,73.70
2017-06-14T06:02:19.050Z,73.30
2017-06-14T06:04:46.574Z,73.50
2017-06-14T06:07:14.125Z,71.70
2017-06-14T06:09:41.658Z,72.20
2017-06-14T06:12:09.201Z,70.20
2017-06-14T06:14:36.786Z,69.60
2017-06-14T06:17:04.359Z,67.30
2017-06-14T06:19:31.891Z,66.60
2017-06-14T06:21:59.453Z,67.00
2017-06-14T06:24:26.990Z,66.20
2017-06-14T06:26:54.939Z,64.50
2017-06-14T06:29:22.770Z,65.70
2017-06-14T06:31:51.070Z,64.90
2017-06-14T06:34:18.623Z,64.80
2017-06-14T06:36:46.173Z,66.20
2017-06-14T06:39:13.717Z,66.30
2017-06-14T06:41:41.241Z,65.80
2017-06-14T06:44:09.040Z,63.90
2017-06-14T06:46:36.560Z,63.20
2017-06-14T06:49:04.089Z,62.50
2017-06-14T06:51:31.678Z,58.70
2017-06-14T06:53:59.188Z,57.00
2017-06-14T06:56:27.486Z,56.20
2017-06-14T06:58:55.336Z,56.20
2017-06-14T07:01:23.654Z,54.80
2017-06-14T07:03:51.195Z,55.20
2017-06-14T07:06:19.012Z,54.70
2017-06-14T07:08:46.559Z,55.00
2017-06-14T07:11:14.087Z,55.90
2017-06-14T07:13:41.655Z,55.20
2017-06-14T07:16:09.166Z,54.60
2017-06-14T07:18:37.448Z,53.30
2017-06-14T07:21:06.106Z,53.20
2017-06-14T07:23:33.631Z,52.80
2017-06-14T07:26:01.142Z,52.50
2017-06-14T07:28:29.095Z,52.80
2017-06-14T07:30:56.624Z,52.60
2017-06-14T07:33:24.153Z,52.30
2017-06-14T07:35:52.097Z,53.10
2017-06-14T07:38:19.626Z,52.90
2017-06-14T07:40:47.188Z,54.60
2017-06-14T07:43:14.758Z,52.10
2017-06-14T07:45:42.301Z,51.50
2017-06-14T07:48:09.827Z,52.00
2017-06-14T07:50:37.417Z,51.70
2017-06-14T07:53:04.989Z,52.40
2017-06-14T07:55:32.566Z,51.30
2017-06-14T07:58:00.919Z,50.60
2017-06-14T08:00:28.453Z,50.50
2017-06-14T08:02:55.985Z,51.10
2017-06-14T08:05:23.540Z,51.30
2017-06-14T08:07:51.068Z,51.60
2017-06-14T08:10:18.603Z,51.90
2017-06-14T08:12:46.145Z,51.60
2017-06-14T08:15:13.707Z,49.70
2017-06-14T08:17:41.237Z,49.80
2017-06-14T08:20:09.052Z,50.40
2017-06-14T08:22:36.578Z,49.50
2017-06-14T08:25:04.134Z,50.10
2017-06-14T08:27:31.723Z,50.80
2017-06-14T08:29:59.255Z,49.40
2017-06-14T08:32:26.783Z,50.90
2017-06-14T08:34:54.336Z,52.40
2017-06-14T08:37:22.647Z,51.20
2017-06-14T08:39:50.172Z,51.20
2017-06-14T08:42:17.745Z,50.50
2017-06-14T08:44:45.276Z,51.50
2017-06-14T08:47:12.794Z,52.90
2017-06-14T08:49:40.361Z,52.30
2017-06-14T08:52:07.926Z,52.10
2017-06-14T08:54:35.492Z,53.20
2017-06-14T08:57:03.049Z,54.00
2017-06-14T08:59:30.581Z,51.90
2017-06-14T09:01:58.107Z,52.60
2017-06-14T09:04:25.686Z,52.90
2017-06-14T09:06:53.281Z,52.90
2017-06-14T09:09:21.256Z,53.20
2017-06-14T09:11:48.905Z,54.60
2017-06-14T09:14:16.442Z,53.30
2017-06-14T09:16:43.990Z,54.60
2017-06-14T09:19:11.572Z,53.50
2017-06-14T09:21:39.138Z,52.10
2017-06-14T09:24:06.694Z,51.70
2017-06-14T09:26:34.259Z,52.60
2017-06-14T09:29:01.785Z,53.10
2017-06-14T09:31:29.321Z,52.60
2017-06-14T09:33:57.630Z,52.80
2017-06-14T09:36:25.164Z,52.80
2017-06-14T09:38:52.707Z,51.60
2017-06-14T09:41:20.274Z,52.30
2017-06-14T09:43:47.807Z,53.00
2017-06-14T09:46:15.362Z,51.40
2017-06-14T09:48:42.943Z,52.80
2017-06-14T09:51:11.337Z,52.00
2017-06-14T09:53:38.880Z,51.60
2017-06-14T09:56:07.249Z,51.50
2017-06-14T09:58:34.795Z,51.50
2017-06-14T10:01:02.359Z,51.60
2017-06-14T10:03:29.913Z,52.20
2017-06-14T10:05:57.518Z,51.30
2017-06-14T10:08:25.099Z,51.50
2017-06-14T10:10:52.646Z,51.00
2017-06-14T10:13:20.189Z,51.50
2017-06-14T10:15:48.523Z,50.90
2017-06-14T10:18:16.550Z,51.40
2017-06-14T10:20:44.111Z,50.40
2017-06-14T10:23:11.644Z,51.20
2017-06-14T10:25:39.976Z,49.50
2017-06-14T10:28:07.527Z,49.50
2017-06-14T10:30:35.081Z,49.10
2017-06-14T10:33:02.644Z,50.00
2017-06-14T10:35:30.631Z,48.10
2017-06-14T10:37:58.238Z,49.70
2017-06-14T10:40:26.629Z,49.40
2017-06-14T10:42:54.193Z,49.40
2017-06-14T10:45:21.718Z,48.70
2017-06-14T10:47:49.273Z,47.30
2017-06-14T10:50:16.804Z,48.70
2017-06-14T10:52:44.449Z,48.70
2017-06-14T10:55:12.110Z,50.20
2017-06-14T10:57:39.856Z,49.10
2017-06-14T11:00:07.578Z,48.10
2017-06-14T11:02:35.350Z,47.90
2017-06-14T11:05:03.946Z,47.40
2017-06-14T11:07:32.248Z,48.30
2017-06-14T11:10:00.088Z,48.20
2017-06-14T11:12:28.385Z,49.50
2017-06-14T11:14:56.091Z,49.50
2017-06-14T11:17:23.869Z,48.50
2017-06-14T11:19:51.644Z,50.50
2017-06-14T11:22:19.190Z,50.60
2017-06-14T11:24:47.146Z,47.60
2017-06-14T11:27:14.876Z,51.60
2017-06-14T11:29:42.457Z,49.10
2017-06-14T11:32:10.034Z,49.90
2017-06-14T11:34:37.697Z,46.60
2017-06-14T11:37:08.510Z,47.00
2017-06-14T11:39:36.135Z,46.50
2017-06-14T11:42:04.937Z,48.50
2017-06-14T11:44:33.178Z,46.50
2017-06-14T11:47:00.971Z,47.30
2017-06-14T11:49:28.560Z,46.60
2017-06-14T11:51:56.100Z,46.00
2017-06-14T11:54:23.627Z,46.50
2017-06-14T11:56:51.181Z,47.10
2017-06-14T11:59:18.711Z,46.60
2017-06-14T12:01:46.287Z,45.20
2017-06-14T12:04:13.845Z,46.30
2017-06-14T12:06:41.407Z,46.10
2017-06-14T12:09:08.933Z,46.40
2017-06-14T12:11:36.524Z,44.90
2017-06-14T12:14:04.075Z,44.70
2017-06-14T12:16:31.618Z,46.30
2017-06-14T12:18:59.193Z,45.70
2017-06-14T12:21:26.744Z,45.40
2017-06-14T12:23:54.325Z,46.80
2017-06-14T12:26:21.888Z,44.40
2017-06-14T12:28:50.206Z,43.40
2017-06-14T12:31:17.726Z,43.30
2017-06-14T12:33:45.582Z,42.40
2017-06-14T12:36:13.201Z,42.40
2017-06-14T12:38:40.771Z,40.10
2017-06-14T12:41:08.361Z,39.50
2017-06-14T12:43:35.911Z,39.30
2017-06-14T12:46:03.482Z,38.80
2017-06-14T12:48:31.069Z,38.20
2017-06-14T12:50:58.634Z,37.20
2017-06-14T12:53:26.163Z,38.90
2017-06-14T12:55:53.711Z,41.20
2017-06-14T12:58:21.274Z,41.80
2017-06-14T13:00:48.860Z,36.60
2017-06-14T13:03:16.702Z,37.80
2017-06-14T13:05:44.423Z,37.50
2017-06-14T13:08:11.982Z,38.10
2017-06-14T13:10:39.539Z,38.00
2017-06-14T13:13:07.074Z,39.40
2017-06-14T13:15:35.394Z,39.30
2017-06-14T13:18:02.959Z,39.20
2017-06-14T13:20:30.513Z,38.50
2017-06-14T13:22:58.050Z,38.90
2017-06-14T13:25:25.606Z,38.20
2017-06-14T13:27:53.141Z,38.30
2017-06-14T13:30:20.698Z,38.10
2017-06-14T13:32:48.274Z,34.70
2017-06-14T13:35:15.799Z,34.80
2017-06-14T13:37:43.360Z,34.20
2017-06-14T13:40:11.350Z,35.20
2017-06-14T13:42:39.640Z,35.40
2017-06-14T13:45:07.167Z,35.40
2017-06-14T13:47:34.724Z,37.10
2017-06-14T13:50:02.269Z,35.80
2017-06-14T13:52:29.807Z,35.00
2017-06-14T13:54:57.657Z,32.40
2017-06-14T13:57:25.222Z,32.70
2017-06-14T13:59:52.766Z,31.20
2017-06-14T14:02:20.322Z,31.90
2017-06-14T14:04:47.874Z,30.30
2017-06-14T14:07:15.443Z,29.40
2017-06-14T14:09:43.245Z,28.70
2017-06-14T14:12:11.577Z,27.70
2017-06-14T14:14:39.125Z,27.70
2017-06-14T14:17:06.701Z,30.40
2017-06-14T14:19:34.234Z,28.60
2017-06-14T14:22:01.802Z,28.40
2017-06-14T14:24:29.390Z,30.00
2017-06-14T14:26:56.929Z,30.60
2017-06-14T14:29:24.488Z,32.30
2017-06-14T14:31:52.083Z,33.70
2017-06-14T14:34:19.625Z,33.90
2017-06-14T14:36:47.187Z,32.40
2017-06-14T14:39:14.762Z,33.50
2017-06-14T14:41:42.311Z,34.30
2017-06-14T14:44:09.849Z,32.20
2017-06-14T14:46:37.454Z,31.60
2017-06-14T14:49:05.011Z,32.50
2017-06-14T14:51:32.563Z,32.10
2017-06-14T14:54:00.126Z,33.20
2017-06-14T14:56:27.705Z,33.20
2017-06-14T14:58:55.253Z,31.60
2017-06-14T15:01:22.866Z,31.50
2017-06-14T15:03:50.425Z,33.00
2017-06-14T15:06:17.964Z,31.60
2017-06-14T15:08:45.543Z,30.90
2017-06-14T15:11:13.084Z,30.10
2017-06-14T15:13:40.640Z,30.10
2017-06-14T15:16:08.981Z,31.60
2017-06-14T15:18:36.583Z,31.60
2017-06-14T15:21:04.918Z,32.40
2017-06-14T15:23:32.480Z,32.40
2017-06-14T15:26:00.040Z,33.30
2017-06-14T15:28:27.604Z,34.40
2017-06-14T15:30:55.550Z,31.70
2017-06-14T15:33:23.082Z,30.70
2017-06-14T15:35:50.634Z,30.10
2017-06-14T15:38:18.192Z,29.80
2017-06-14T15:40:45.709Z,31.50
2017-06-14T15:43:13.265Z,30.00
2017-06-14T15:45:40.855Z,30.70
2017-06-14T15:48:08.377Z,29.70
2017-06-14T15:50:35.897Z,30.40
2017-06-14T15:53:03.444Z,31.00
2017-06-14T15:55:30.990Z,30.00
2017-06-14T15:57:58.529Z,29.90
2017-06-14T16:00:26.101Z,29.50
2017-06-14T16:02:53.637Z,31.90
2017-06-14T16:05:21.167Z,32.20
2017-06-14T16:07:48.734Z,33.30
2017-06-14T16:10:16.267Z,34.70
2017-06-14T16:12:43.801Z,35.10
2017-06-14T16:15:11.381Z,35.50
2017-06-14T16:17:38.920Z,36.80
2017-06-14T16:20:06.477Z,36.30
2017-06-14T16:22:34.022Z,34.90
2017-06-14T16:25:01.557Z,34.30
2017-06-14T16:27:29.091Z,34.40
2017-06-14T16:29:56.660Z,34.90
2017-06-14T16:32:24.195Z,34.10
2017-06-14T16:34:51.713Z,33.70
2017-06-14T16:37:19.368Z,31.80
2017-06-14T16:39:46.957Z,32.60
2017-06-14T16:42:14.509Z,34.70
2017-06-14T16:44:42.070Z,34.20
2017-06-14T16:47:09.621Z,34.30
2017-06-14T16:49:37.197Z,33.30
2017-06-14T16:52:04.803Z,33.90
2017-06-14T16:54:32.337Z,33.70
2017-06-14T16:56:59.895Z,32.70
2017-06-14T16:59:27.487Z,32.80
2017-06-14T17:01:55.048Z,33.10
2017-06-14T17:04:22.607Z,32.10
2017-06-14T17:06:50.174Z,32.40
2017-06-14T17:09:17.733Z,33.10
2017-06-14T17:11:45.286Z,34.20
2017-06-14T17:14:12.865Z,33.30
2017-06-14T17:16:40.404Z,34.00
2017-06-14T17:19:07.956Z,33.70
2017-06-14T17:21:35.794Z,35.30
2017-06-14T17:24:04.905Z,36.10
2017-06-14T17:26:32.457Z,37.10
2017-06-14T17:29:00.059Z,37.80
2017-06-14T17:31:27.594Z,39.10
2017-06-14T17:33:55.134Z,39.70
2017-06-14T17:36:22.713Z,40.60
2017-06-14T17:38:50.250Z,41.20
2017-06-14T17:41:17.787Z,42.70
2017-06-14T17:43:46.122Z,43.80
2017-06-14T17:46:13.673Z,43.80
2017-06-14T17:48:41.233Z,44.50
2017-06-14T17:51:08.828Z,44.00
2017-06-14T17:53:36.366Z,45.20
2017-06-14T17:56:03.927Z,45.70
2017-06-14T17:58:31.851Z,44.90
2017-06-14T18:00:59.401Z,45.90
2017-06-14T18:03:26.971Z,45.50
2017-06-14T18:05:54.530Z,45.90
2017-06-14T18:08:22.135Z,46.20
2017-06-14T18:10:49.688Z,46.40
2017-06-14T18:13:17.262Z,47.00
2017-06-14T18:15:44.799Z,48.40
2017-06-14T18:18:12.342Z,49.50
2017-06-14T18:20:39.951Z,49.80
2017-06-14T18:23:07.532Z,50.50
2017-06-14T18:25:35.110Z,51.00
2017-06-14T18:28:02.663Z,50.90
2017-06-14T18:30:30.206Z,51.00
2017-06-14T18:32:58.543Z,52.10
2017-06-14T18:35:26.362Z,52.10
2017-06-14T18:37:53.909Z,52.40
2017-06-14T18:40:21.443Z,51.60
2017-06-14T18:42:49.001Z,51.80
2017-06-14T18:45:16.543Z,52.00
2017-06-14T18:47:44.094Z,51.80
2017-06-14T18:50:11.667Z,51.90
2017-06-14T18:52:39.203Z,51.80
2017-06-14T18:55:06.748Z,52.70
2017-06-14T18:57:34.329Z,54.00
2017-06-14T19:00:01.872Z,54.30
2017-06-14T19:02:29.432Z,54.50
2017-06-14T19:04:57.003Z,55.00
2017-06-14T19:07:24.606Z,55.60
2017-06-14T19:09:52.211Z,55.60
2017-06-14T19:12:19.986Z,55.90
2017-06-14T19:14:48.112Z,55.80
2017-06-14T19:17:16.897Z,56.00
2017-06-14T19:19:44.965Z,56.40
2017-06-14T19:22:12.514Z,57.00
2017-06-14T19:24:40.095Z,57.50
2017-06-14T19:27:07.962Z,57.80
2017-06-14T19:29:35.552Z,57.40
2017-06-14T19:32:03.095Z,57.40
2017-06-14T19:34:30.695Z,57.60
2017-06-14T19:36:58.237Z,57.80
2017-06-14T19:39:25.862Z,58.10
2017-06-14T19:41:53.460Z,58.70
2017-06-14T19:44:21.154Z,59.20
2017-06-14T19:46:48.781Z,59.70
2017-06-14T19:49:16.347Z,60.60
2017-06-14T19:51:43.903Z,61.60
2017-06-14T19:54:11.443Z,62.40
2017-06-14T19:56:39.012Z,63.10
2017-06-14T19:59:06.549Z,63.70
2017-06-14T20:01:34.077Z,64.50
2017-06-14T20:04:01.650Z,64.60
2017-06-14T20:06:29.184Z,65.00
2017-06-14T20:08:56.712Z,65.20
2017-06-14T20:11:24.284Z,65.80
2017-06-14T20:13:51.809Z,66.00
2017-06-14T20:16:19.393Z,65.90
2017-06-14T20:18:46.984Z,66.80
2017-06-14T20:21:14.540Z,67.70
2017-06-14T20:23:42.074Z,67.20
2017-06-14T20:26:09.657Z,67.80
2017-06-14T20:28:37.219Z,68.20
2017-06-14T20:31:04.763Z,68.70
2017-06-14T20:33:32.365Z,69.30
2017-06-14T20:35:59.954Z,69.80
2017-06-14T20:38:27.509Z,71.00
2017-06-14T20:40:55.073Z,70.90
2017-06-14T20:43:22.632Z,71.50
2017-06-14T20:45:50.203Z,72.00
2017-06-14T20:48:17.774Z,72.40
2017-06-14T20:50:45.317Z,72.80
2017-06-14T20:53:12.864Z,73.20
2017-06-14T20:55:40.433Z,72.90
2017-06-14T20:58:07.968Z,72.70
2017-06-14T21:00:35.505Z,72.40
2017-06-14T21:03:03.078Z,72.50
2017-06-14T21:05:30.614Z,73.50
2017-06-14T21:07:58.179Z,75.70
2017-06-14T21:10:25.750Z,75.40
2017-06-14T21:12:54.066Z,76.40
2017-06-14T21:15:21.622Z,76.40
2017-06-14T21:17:49.203Z,77.50
2017-06-14T21:20:16.747Z,78.30
2017-06-14T21:22:44.291Z,79.30
2017-06-14T21:25:11.892Z,79.90
2017-06-14T21:27:39.454Z,80.50
2017-06-14T21:30:07.028Z,81.00
2017-06-14T21:32:35.715Z,81.50
2017-06-14T21:35:03.367Z,81.80
2017-06-14T21:37:30.922Z,82.60
2017-06-14T21:39:58.493Z,82.60
2017-06-14T21:42:27.288Z,82.80
2017-06-14T21:44:57.643Z,83.00
2017-06-14T21:47:25.255Z,83.40
2017-06-14T21:49:52.799Z,83.80
2017-06-14T21:52:20.342Z,84.00
2017-06-14T21:54:47.950Z,84.20
2017-06-14T21:57:20.981Z,84.70
2017-06-14T21:59:48.563Z,85.10
2017-06-14T22:02:16.102Z,85.90
2017-06-14T22:04:43.658Z,86.30
2017-06-14T22:07:12.768Z,86.80
2017-06-14T22:09:40.310Z,88.20
2017-06-14T22:12:07.844Z,87.80
2017-06-14T22:14:36.170Z,88.30
2017-06-14T22:17:03.696Z,88.30
2017-06-14T22:19:31.232Z,88.80
2017-06-14T22:21:58.784Z,89.10
2017-06-14T22:24:26.321Z,89.40
2017-06-14T22:26:53.863Z,89.20
2017-06-14T22:29:21.452Z,89.00
2017-06-14T22:31:49.005Z,89.10
2017-06-14T22:34:16.539Z,89.30
2017-06-14T22:36:44.130Z,89.40
2017-06-14T22:39:11.658Z,89.50
2017-06-14T22:41:39.197Z,89.50
2017-06-14T22:44:06.752Z,90.20
2017-06-14T22:46:34.295Z,90.00
2017-06-14T22:49:02.116Z,90.20
2017-06-14T22:51:29.706Z,90.20
2017-06-14T22:53:57.238Z,90.30
2017-06-14T22:56:24.792Z,90.30
2017-06-14T22:58:52.662Z,90.30
2017-06-14T23:01:20.202Z,90.40
2017-06-14T23:03:47.742Z,90.40
2017-06-14T23:06:15.406Z,90.40
2017-06-14T23:08:42.958Z,90.50
2017-06-14T23:11:10.501Z,90.60
2017-06-14T23:13:38.830Z,90.60
2017-06-14T23:16:06.390Z,90.60
2017-06-14T23:18:36.157Z,91.00
2017-06-14T23:21:04.051Z,90.80
2017-06-14T23:23:32.768Z,90.90
2017-06-14T23:26:00.336Z,90.80
2017-06-14T23:28:27.898Z,90.60
2017-06-14T23:30:55.450Z,90.60
2017-06-14T23:33:22.978Z,90.80
2017-06-14T23:35:50.536Z,90.80
2017-06-14T23:38:18.074Z,90.90
2017-06-14T23:40:45.611Z,90.80
2017-06-14T23:43:13.194Z,90.60
2017-06-14T23:45:40.735Z,90.40
2017-06-14T23:48:08.273Z,90.60
2017-06-14T23:50:35.839Z,90.80
2017-06-14T23:53:03.381Z,90.90
2017-06-14T23:55:30.925Z,91.10
2017-06-14T23:57:58.501Z,91.20
